createdAt,value
2018-07-03T00:00:43.403Z,101975.86
2018-07-03T00:03:12.218Z,101980.05
2018-07-03T00:05:40.850Z,101979.72
2018-07-03T00:08:09.698Z,101985.72
2018-07-03T00:10:38.515Z,101987.30
2018-07-03T00:13:07.348Z,101985.03
2018-07-03T00:15:36.161Z,101989.00
2018-07-03T00:18:05.527Z,101985.28
2018-07-03T00:20:34.335Z,101986.33
2018-07-03T00:23:03.184Z,101989.72
2018-07-03T00:25:31.965Z,101986.59
2018-07-03T00:28:00.838Z,101991.20
2018-07-03T00:30:29.583Z,101989.83
2018-07-03T00:32:58.456Z,101987.91
2018-07-03T00:35:27.204Z,101987.53
2018-07-03T00:37:55.912Z,101984.45
2018-07-03T00:40:24.751Z,101982.20
2018-07-03T00:42:53.512Z,101991.44
2018-07-03T00:45:28.239Z,101997.13
2018-07-03T00:47:57.002Z,101991.88
2018-07-03T00:50:25.831Z,101988.14
2018-07-03T00:52:54.612Z,101991.86
2018-07-03T00:55:23.499Z,101989.71
2018-07-03T00:57:52.252Z,101990.98
2018-07-03T01:00:31.488Z,101994.73
2018-07-03T01:03:00.884Z,101993.66
2018-07-03T01:05:29.812Z,101985.78
2018-07-03T01:07:58.676Z,101991.95
2018-07-03T01:10:28.086Z,101981.05
2018-07-03T01:12:57.556Z,101983.79
2018-07-03T01:15:27.401Z,101983.65
2018-07-03T01:17:56.501Z,101984.52
2018-07-03T01:20:25.641Z,101977.22
2018-07-03T01:22:54.504Z,101977.44
2018-07-03T01:25:23.331Z,101981.02
2018-07-03T01:27:52.088Z,101980.98
2018-07-03T01:30:20.986Z,101978.48
2018-07-03T01:32:49.774Z,101981.47
2018-07-03T01:35:18.616Z,101978.27
2018-07-03T01:37:47.393Z,101990.52
2018-07-03T01:40:16.199Z,101980.91
2018-07-03T01:42:45.047Z,101976.34
2018-07-03T01:45:19.954Z,101982.75
2018-07-03T01:47:48.791Z,101986.08
2018-07-03T01:50:17.955Z,101985.63
2018-07-03T01:52:46.838Z,101985.06
2018-07-03T01:55:15.605Z,101987.36
2018-07-03T01:57:44.308Z,101983.39
2018-07-03T02:00:13.078Z,101975.28
2018-07-03T02:02:41.734Z,101982.84
2018-07-03T02:05:10.615Z,101971.72
2018-07-03T02:07:39.431Z,101967.41
2018-07-03T02:10:08.211Z,101965.78
2018-07-03T02:12:37.084Z,101966.84
2018-07-03T02:15:05.885Z,101956.47
2018-07-03T02:17:34.748Z,101957.90
2018-07-03T02:20:03.977Z,101958.41
2018-07-03T02:22:32.752Z,101949.59
2018-07-03T02:25:01.603Z,101948.47
2018-07-03T02:27:30.395Z,101950.28
2018-07-03T02:29:59.301Z,101948.33
2018-07-03T02:32:28.134Z,101949.93
2018-07-03T02:34:56.951Z,101951.77
2018-07-03T02:37:25.737Z,101949.64
2018-07-03T02:39:54.379Z,101952.41
2018-07-03T02:42:23.224Z,101946.64
2018-07-03T02:44:52.351Z,101945.67
2018-07-03T02:47:21.140Z,101945.34
2018-07-03T02:49:49.938Z,101946.58
2018-07-03T02:52:18.703Z,101949.45
2018-07-03T02:54:47.728Z,101945.73
2018-07-03T02:57:16.544Z,101944.31
2018-07-03T02:59:45.333Z,101946.24
2018-07-03T03:02:14.476Z,101949.48
2018-07-03T03:04:43.311Z,101941.75
2018-07-03T03:07:12.187Z,101942.83
2018-07-03T03:09:40.960Z,101941.52
2018-07-03T03:12:09.794Z,101937.19
2018-07-03T03:14:38.571Z,101934.87
2018-07-03T03:17:07.391Z,101937.86
2018-07-03T03:19:36.221Z,101934.31
2018-07-03T03:22:05.219Z,101933.08
2018-07-03T03:24:33.972Z,101933.75
2018-07-03T03:27:02.647Z,101933.80
2018-07-03T03:29:31.810Z,101929.30
2018-07-03T03:32:01.077Z,101931.37
2018-07-03T03:34:30.117Z,101933.50
2018-07-03T03:36:58.932Z,101935.64
2018-07-03T03:39:27.680Z,101929.19
2018-07-03T03:41:56.548Z,101926.79
2018-07-03T03:44:25.363Z,101927.81
2018-07-03T03:46:54.138Z,101926.09
2018-07-03T03:49:22.954Z,101929.93
2018-07-03T03:51:51.734Z,101930.38
2018-07-03T03:54:20.563Z,101936.42
2018-07-03T03:56:49.480Z,101933.44
2018-07-03T03:59:18.279Z,101937.80
2018-07-03T04:01:47.099Z,101940.39
2018-07-03T04:04:16.216Z,101939.52
2018-07-03T04:06:45.020Z,101936.98
2018-07-03T04:09:15.255Z,101933.91
2018-07-03T04:11:43.881Z,101936.66
2018-07-03T04:14:12.706Z,101940.88
2018-07-03T04:16:41.483Z,101943.07
2018-07-03T04:19:10.352Z,101939.91
2018-07-03T04:21:39.206Z,101939.17
2018-07-03T04:24:08.083Z,101935.84
2018-07-03T04:26:36.859Z,101938.66
2018-07-03T04:29:05.713Z,101945.19
2018-07-03T04:31:34.488Z,101941.52
2018-07-03T04:34:03.363Z,101934.15
2018-07-03T04:36:31.974Z,101936.67
2018-07-03T04:39:00.759Z,101932.70
2018-07-03T04:41:29.614Z,101929.98
2018-07-03T04:43:58.383Z,101933.11
2018-07-03T04:46:27.257Z,101930.06
2018-07-03T04:48:56.053Z,101935.45
2018-07-03T04:51:24.880Z,101934.13
2018-07-03T04:53:53.513Z,101932.64
2018-07-03T04:56:22.383Z,101924.97
2018-07-03T04:58:51.394Z,101922.92
2018-07-03T05:01:20.204Z,101925.94
2018-07-03T05:03:48.979Z,101923.72
2018-07-03T05:06:18.629Z,101928.28
2018-07-03T05:08:47.438Z,101924.14
2018-07-03T05:11:16.758Z,101929.98
2018-07-03T05:13:45.520Z,101932.65
2018-07-03T05:16:14.311Z,101935.03
2018-07-03T05:18:42.904Z,101936.69
2018-07-03T05:21:11.703Z,101934.42
2018-07-03T05:23:40.571Z,101939.56
2018-07-03T05:26:09.375Z,101940.05
2018-07-03T05:28:38.135Z,101939.77
2018-07-03T05:31:07.041Z,101942.81
2018-07-03T05:33:35.938Z,101946.13
2018-07-03T05:36:04.961Z,101947.56
2018-07-03T05:38:33.739Z,101941.16
2018-07-03T05:41:02.571Z,101948.23
2018-07-03T05:43:31.466Z,101948.41
2018-07-03T05:46:00.265Z,101948.40
2018-07-03T05:48:29.149Z,101957.55
2018-07-03T05:50:57.946Z,101952.14
2018-07-03T05:53:26.811Z,101956.70
2018-07-03T05:55:55.611Z,101959.87
2018-07-03T05:58:24.491Z,101964.34
2018-07-03T06:00:53.390Z,101966.22
2018-07-03T06:03:22.198Z,101967.54
2018-07-03T06:05:51.047Z,101968.45
2018-07-03T06:08:19.855Z,101969.27
2018-07-03T06:10:48.609Z,101981.92
2018-07-03T06:13:17.502Z,101982.58
2018-07-03T06:15:46.109Z,101973.07
2018-07-03T06:18:15.023Z,101972.28
2018-07-03T06:20:43.779Z,101971.11
2018-07-03T06:23:12.427Z,101980.19
2018-07-03T06:25:41.250Z,101971.14
2018-07-03T06:28:10.069Z,101977.61
2018-07-03T06:30:38.851Z,101970.11
2018-07-03T06:33:07.843Z,101972.38
2018-07-03T06:35:36.607Z,101972.56
2018-07-03T06:38:05.441Z,101967.30
2018-07-03T06:40:34.288Z,101971.52
2018-07-03T06:43:03.088Z,101969.88
2018-07-03T06:45:38.015Z,101972.61
2018-07-03T06:48:06.876Z,101961.95
2018-07-03T06:50:35.690Z,101961.25
2018-07-03T06:53:04.294Z,101967.53
2018-07-03T06:55:33.100Z,101972.19
2018-07-03T06:58:02.124Z,101967.39
2018-07-03T07:00:31.025Z,101965.27
2018-07-03T07:02:59.792Z,101970.52
2018-07-03T07:05:28.706Z,101971.09
2018-07-03T07:07:57.491Z,101973.77
2018-07-03T07:10:26.284Z,101968.70
2018-07-03T07:12:55.148Z,101969.59
2018-07-03T07:15:23.975Z,101967.63
2018-07-03T07:17:52.791Z,101966.27
2018-07-03T07:20:21.415Z,101967.29
2018-07-03T07:22:50.289Z,101959.28
2018-07-03T07:25:19.132Z,101962.88
2018-07-03T07:27:47.958Z,101960.81
2018-07-03T07:30:16.562Z,101960.30
2018-07-03T07:32:45.394Z,101959.53
2018-07-03T07:35:14.216Z,101961.09
2018-07-03T07:37:43.121Z,101963.56
2018-07-03T07:40:11.907Z,101964.00
2018-07-03T07:42:40.732Z,101969.05
2018-07-03T07:45:09.503Z,101967.06
2018-07-03T07:47:38.336Z,101971.58
2018-07-03T07:50:07.184Z,101961.41
2018-07-03T07:52:36.005Z,101962.13
2018-07-03T07:55:04.860Z,101965.11
2018-07-03T07:57:33.775Z,101965.72
2018-07-03T08:00:02.603Z,101960.58
2018-07-03T08:02:31.488Z,101971.31
2018-07-03T08:05:00.373Z,101959.60
2018-07-03T08:07:29.161Z,101962.37
2018-07-03T08:09:57.992Z,101963.88
2018-07-03T08:12:26.593Z,101957.41
2018-07-03T08:14:55.561Z,101958.44
2018-07-03T08:17:24.350Z,101949.98
2018-07-03T08:19:53.207Z,101955.09
2018-07-03T08:22:22.011Z,101947.57
2018-07-03T08:24:50.834Z,101947.64
2018-07-03T08:27:19.683Z,101948.41
2018-07-03T08:29:48.500Z,101954.78
2018-07-03T08:32:17.172Z,101948.53
2018-07-03T08:34:45.991Z,101959.44
2018-07-03T08:37:14.603Z,101947.37
2018-07-03T08:39:43.492Z,101949.13
2018-07-03T08:42:12.399Z,101943.20
2018-07-03T08:44:41.203Z,101944.50
2018-07-03T08:47:10.069Z,101936.91
2018-07-03T08:49:38.893Z,101935.27
2018-07-03T08:52:07.787Z,101938.22
2018-07-03T08:54:36.638Z,101932.52
2018-07-03T08:57:05.464Z,101929.55
2018-07-03T08:59:34.232Z,101927.88
2018-07-03T09:02:03.156Z,101937.39
2018-07-03T09:04:32.379Z,101932.11
2018-07-03T09:07:01.241Z,101930.17
2018-07-03T09:09:30.091Z,101928.77
2018-07-03T09:11:59.328Z,101932.00
2018-07-03T09:14:28.116Z,101932.41
2018-07-03T09:16:57.082Z,101931.04
2018-07-03T09:19:26.029Z,101925.36
2018-07-03T09:21:54.959Z,101928.92
2018-07-03T09:24:23.727Z,101923.17
2018-07-03T09:26:52.890Z,101926.17
2018-07-03T09:29:21.762Z,101922.91
2018-07-03T09:31:50.599Z,101917.21
2018-07-03T09:34:19.659Z,101918.20
2018-07-03T09:36:48.434Z,101922.78
2018-07-03T09:39:17.251Z,101916.08
2018-07-03T09:41:46.411Z,101914.83
2018-07-03T09:44:15.168Z,101911.53
2018-07-03T09:46:43.901Z,101908.37
2018-07-03T09:49:13.017Z,101910.70
2018-07-03T09:51:41.779Z,101915.53
2018-07-03T09:54:10.611Z,101900.58
2018-07-03T09:56:39.536Z,101899.75
2018-07-03T09:59:08.341Z,101907.55
2018-07-03T10:01:37.439Z,101901.42
2018-07-03T10:04:06.572Z,101899.53
2018-07-03T10:06:35.473Z,101905.61
2018-07-03T10:09:07.322Z,101896.27
2018-07-03T10:11:36.105Z,101892.58
2018-07-03T10:14:04.918Z,101888.56
2018-07-03T10:16:34.099Z,101886.28
2018-07-03T10:19:02.959Z,101889.98
2018-07-03T10:21:31.745Z,101889.89
2018-07-03T10:24:00.882Z,101893.73
2018-07-03T10:26:29.700Z,101888.64
2018-07-03T10:28:59.088Z,101886.67
2018-07-03T10:31:29.058Z,101889.64
2018-07-03T10:33:57.952Z,101894.63
2018-07-03T10:36:26.992Z,101886.67
2018-07-03T10:38:56.076Z,101882.37
2018-07-03T10:41:24.873Z,101886.95
2018-07-03T10:43:53.817Z,101889.99
2018-07-03T10:46:22.731Z,101878.80
2018-07-03T10:48:51.517Z,101876.35
2018-07-03T10:51:20.333Z,101876.44
2018-07-03T10:53:49.531Z,101876.44
2018-07-03T10:56:18.384Z,101877.22
2018-07-03T10:58:47.401Z,101871.89
2018-07-03T11:01:16.331Z,101868.56
2018-07-03T11:03:45.090Z,101863.41
2018-07-03T11:06:13.869Z,101864.30
2018-07-03T11:08:43.503Z,101862.76
2018-07-03T11:11:12.296Z,101867.52
2018-07-03T11:13:41.126Z,101862.27
2018-07-03T11:16:10.180Z,101868.14
2018-07-03T11:18:38.932Z,101866.58
2018-07-03T11:21:08.151Z,101863.77
2018-07-03T11:23:37.258Z,101868.92
2018-07-03T11:26:06.164Z,101866.03
2018-07-03T11:28:34.925Z,101861.34
2018-07-03T11:31:04.040Z,101854.70
2018-07-03T11:33:32.925Z,101855.38
2018-07-03T11:36:01.699Z,101848.24
2018-07-03T11:38:30.776Z,101853.87
2018-07-03T11:40:59.653Z,101855.14
2018-07-03T11:43:28.275Z,101853.39
2018-07-03T11:46:03.515Z,101854.73
2018-07-03T11:48:32.298Z,101852.58
2018-07-03T11:51:01.096Z,101845.98
2018-07-03T11:53:30.025Z,101852.41
2018-07-03T11:55:59.006Z,101853.22
2018-07-03T11:58:28.011Z,101858.02
2018-07-03T12:00:57.307Z,101844.30
2018-07-03T12:03:26.116Z,101846.84
2018-07-03T12:05:55.147Z,101853.11
2018-07-03T12:08:24.305Z,101845.75
2018-07-03T12:10:53.150Z,101848.62
2018-07-03T12:13:21.944Z,101859.75
2018-07-03T12:15:50.907Z,101847.09
2018-07-03T12:18:25.190Z,101849.59
2018-07-03T12:20:54.390Z,101853.11
2018-07-03T12:23:23.251Z,101847.39
2018-07-03T12:25:52.087Z,101847.56
2018-07-03T12:28:21.488Z,101843.69
2018-07-03T12:30:50.325Z,101842.61
2018-07-03T12:33:18.994Z,101846.09
2018-07-03T12:35:47.972Z,101841.44
2018-07-03T12:38:16.756Z,101834.48
2018-07-03T12:40:45.623Z,101836.04
2018-07-03T12:43:14.580Z,101837.87
2018-07-03T12:45:49.338Z,101832.64
2018-07-03T12:48:18.224Z,101840.55
2018-07-03T12:50:47.051Z,101838.02
2018-07-03T12:53:16.177Z,101834.70
2018-07-03T12:55:45.307Z,101831.28
2018-07-03T12:58:14.156Z,101833.05
2018-07-03T13:00:42.974Z,101836.29
2018-07-03T13:03:12.087Z,101832.01
2018-07-03T13:05:40.915Z,101827.75
2018-07-03T13:08:09.947Z,101830.80
2018-07-03T13:10:39.179Z,101836.07
2018-07-03T13:13:08.075Z,101828.98
2018-07-03T13:15:36.865Z,101834.97
2018-07-03T13:18:12.112Z,101827.56
2018-07-03T13:20:41.080Z,101837.55
2018-07-03T13:23:10.411Z,101829.48
2018-07-03T13:25:39.595Z,101823.53
2018-07-03T13:28:08.494Z,101819.90
2018-07-03T13:30:37.298Z,101821.11
2018-07-03T13:33:07.248Z,101825.53
2018-07-03T13:35:36.033Z,101827.12
2018-07-03T13:38:05.362Z,101819.30
2018-07-03T13:40:34.519Z,101814.55
2018-07-03T13:43:03.311Z,101814.62
2018-07-03T13:45:38.616Z,101809.46
2018-07-03T13:48:07.491Z,101811.92
2018-07-03T13:50:36.259Z,101817.52
2018-07-03T13:53:05.495Z,101813.23
2018-07-03T13:55:34.634Z,101809.65
2018-07-03T13:58:03.296Z,101802.91
2018-07-03T14:00:32.485Z,101809.39
2018-07-03T14:03:01.251Z,101799.42
2018-07-03T14:05:30.040Z,101802.77
2018-07-03T14:07:59.004Z,101804.86
2018-07-03T14:10:27.789Z,101802.48
2018-07-03T14:12:56.560Z,101806.01
2018-07-03T14:15:26.149Z,101805.56
2018-07-03T14:17:55.873Z,101801.36
2018-07-03T14:20:24.719Z,101799.94
2018-07-03T14:22:53.845Z,101802.58
2018-07-03T14:25:22.689Z,101805.81
2018-07-03T14:27:51.483Z,101802.41
2018-07-03T14:30:20.621Z,101811.83
2018-07-03T14:32:49.254Z,101798.89
2018-07-03T14:35:17.861Z,101802.74
2018-07-03T14:37:46.992Z,101804.42
2018-07-03T14:40:15.795Z,101803.30
2018-07-03T14:42:44.559Z,101804.16
2018-07-03T14:45:14.186Z,101804.16
2018-07-03T14:47:42.979Z,101804.54
2018-07-03T14:50:11.896Z,101801.54
2018-07-03T14:52:40.693Z,101809.37
2018-07-03T14:55:09.294Z,101808.41
2018-07-03T14:57:38.161Z,101807.13
2018-07-03T15:00:07.533Z,101802.20
2018-07-03T15:02:36.324Z,101802.57
2018-07-03T15:05:05.465Z,101812.48
2018-07-03T15:07:34.603Z,101807.53
2018-07-03T15:10:03.598Z,101796.03
2018-07-03T15:12:32.380Z,101805.21
2018-07-03T15:15:01.501Z,101802.06
2018-07-03T15:17:30.415Z,101809.28
2018-07-03T15:19:59.655Z,101795.68
2018-07-03T15:22:28.655Z,101784.06
2018-07-03T15:24:57.434Z,101789.98
2018-07-03T15:27:26.249Z,101798.69
2018-07-03T15:29:55.565Z,101798.96
2018-07-03T15:32:24.335Z,101789.95
2018-07-03T15:34:53.163Z,101797.80
2018-07-03T15:37:22.647Z,101797.34
2018-07-03T15:39:51.480Z,101795.24
2018-07-03T15:42:20.290Z,101803.58
2018-07-03T15:45:07.750Z,101798.08
2018-07-03T15:47:36.591Z,101795.98
2018-07-03T15:50:06.662Z,101800.22
2018-07-03T15:52:35.546Z,101802.84
2018-07-03T15:55:04.784Z,101793.76
2018-07-03T15:57:33.751Z,101807.06
2018-07-03T16:00:02.716Z,101793.16
2018-07-03T16:02:31.507Z,101795.34
2018-07-03T16:05:18.598Z,101792.86
2018-07-03T16:09:56.995Z,101791.86
2018-07-03T16:12:25.841Z,101790.19
2018-07-03T16:14:54.767Z,101792.09
2018-07-03T16:17:23.586Z,101787.80
2018-07-03T16:19:57.857Z,101792.37
2018-07-03T16:22:26.688Z,101795.41
2018-07-03T16:24:55.644Z,101788.70
2018-07-03T16:27:24.431Z,101783.73
2018-07-03T16:29:53.293Z,101781.36
2018-07-03T16:32:22.108Z,101786.11
2018-07-03T16:34:50.966Z,101783.47
2018-07-03T16:37:19.840Z,101780.42
2018-07-03T16:39:48.631Z,101775.08
2018-07-03T16:42:17.469Z,101772.75
2018-07-03T16:44:46.244Z,101777.62
2018-07-03T16:47:15.049Z,101780.39
2018-07-03T16:49:43.947Z,101777.09
2018-07-03T16:52:12.808Z,101779.64
2018-07-03T16:54:41.591Z,101778.60
2018-07-03T16:57:10.447Z,101779.03
2018-07-03T16:59:39.228Z,101779.16
2018-07-03T17:02:08.165Z,101783.00
2018-07-03T17:04:36.769Z,101788.11
2018-07-03T17:07:05.701Z,101781.23
2018-07-03T17:09:34.492Z,101782.38
2018-07-03T17:12:03.359Z,101791.19
2018-07-03T17:14:32.030Z,101786.73
2018-07-03T17:17:00.860Z,101790.92
2018-07-03T17:19:37.430Z,101783.86
2018-07-03T17:22:06.548Z,101781.67
2018-07-03T17:24:35.783Z,101782.16
2018-07-03T17:27:05.383Z,101784.03
2018-07-03T17:29:34.756Z,101780.09
2018-07-03T17:32:03.719Z,101783.05
2018-07-03T17:34:32.489Z,101787.11
2018-07-03T17:37:01.499Z,101781.25
2018-07-03T17:39:47.720Z,101785.69
2018-07-03T17:44:41.611Z,101781.25
2018-07-03T17:47:10.624Z,101774.56
2018-07-03T17:49:39.448Z,101773.20
2018-07-03T17:52:08.640Z,101767.62
2018-07-03T17:54:37.796Z,101764.14
2018-07-03T17:57:06.662Z,101764.17
2018-07-03T17:59:35.468Z,101756.05
2018-07-03T18:02:04.670Z,101764.02
2018-07-03T18:04:33.483Z,101766.30
2018-07-03T18:07:02.308Z,101763.74
2018-07-03T18:09:31.121Z,101762.13
2018-07-03T18:11:59.995Z,101760.95
2018-07-03T18:14:28.817Z,101768.73
2018-07-03T18:16:57.626Z,101771.88
2018-07-03T18:19:31.815Z,101768.50
2018-07-03T18:22:00.547Z,101768.60
2018-07-03T18:24:29.457Z,101766.23
2018-07-03T18:26:59.033Z,101761.17
2018-07-03T18:29:28.017Z,101765.32
2018-07-03T18:31:56.815Z,101766.55
2018-07-03T18:34:25.604Z,101766.16
2018-07-03T18:36:54.830Z,101763.60
2018-07-03T18:39:23.462Z,101765.38
2018-07-03T18:41:52.792Z,101768.73
2018-07-03T18:44:21.575Z,101768.94
2018-07-03T18:46:50.495Z,101769.14
2018-07-03T18:49:19.435Z,101775.28
2018-07-03T18:51:48.254Z,101773.30
2018-07-03T18:54:17.053Z,101771.12
2018-07-03T18:56:47.030Z,101772.32
2018-07-03T18:59:15.865Z,101765.40
2018-07-03T19:01:44.701Z,101766.17
2018-07-03T19:04:14.034Z,101761.42
2018-07-03T19:06:43.215Z,101764.19
2018-07-03T19:09:12.106Z,101766.73
2018-07-03T19:11:41.184Z,101759.42
2018-07-03T19:14:10.035Z,101762.19
2018-07-03T19:16:38.820Z,101769.91
2018-07-03T19:19:08.147Z,101770.44
2018-07-03T19:21:36.746Z,101765.30
2018-07-03T19:24:05.417Z,101774.94
2018-07-03T19:26:34.611Z,101774.53
2018-07-03T19:29:03.525Z,101775.09
2018-07-03T19:31:32.501Z,101780.39
2018-07-03T19:34:01.419Z,101778.97
2018-07-03T19:36:30.228Z,101783.11
2018-07-03T19:38:58.938Z,101775.92
2018-07-03T19:41:28.352Z,101778.42
2018-07-03T19:43:57.013Z,101778.67
2018-07-03T19:46:25.803Z,101788.09
2018-07-03T19:48:54.920Z,101790.76
2018-07-03T19:51:23.786Z,101789.77
2018-07-03T19:53:52.615Z,101789.55
2018-07-03T19:56:21.729Z,101797.17
2018-07-03T19:58:50.852Z,101793.19
2018-07-03T20:01:20.766Z,101797.75
2018-07-03T20:03:49.793Z,101788.03
2018-07-03T20:06:18.580Z,101788.58
2018-07-03T20:08:47.404Z,101792.44
2018-07-03T20:11:16.587Z,101794.91
2018-07-03T20:13:45.498Z,101806.59
2018-07-03T20:16:14.341Z,101809.16
2018-07-03T20:18:43.452Z,101812.25
2018-07-03T20:21:12.271Z,101808.42
2018-07-03T20:23:41.068Z,101820.09
2018-07-03T20:26:10.984Z,101815.89
2018-07-03T20:28:39.996Z,101820.10
2018-07-03T20:31:08.685Z,101818.11
2018-07-03T20:33:37.633Z,101829.33
2018-07-03T20:36:06.516Z,101826.91
2018-07-03T20:38:35.295Z,101826.68
2018-07-03T20:41:05.303Z,101836.02
2018-07-03T20:43:36.511Z,101833.78
2018-07-03T20:46:06.400Z,101838.06
2018-07-03T20:48:35.207Z,101840.78
2018-07-03T20:51:04.113Z,101840.48
2018-07-03T20:53:33.486Z,101839.73
2018-07-03T20:56:02.276Z,101834.27
2018-07-03T20:58:31.139Z,101834.50
2018-07-03T21:01:00.271Z,101830.86
2018-07-03T21:03:29.177Z,101830.23
2018-07-03T21:05:58.092Z,101829.19
2018-07-03T21:08:27.253Z,101823.91
2018-07-03T21:10:56.161Z,101837.22
2018-07-03T21:13:25.043Z,101841.13
2018-07-03T21:15:54.088Z,101842.31
2018-07-03T21:18:23.179Z,101838.88
2018-07-03T21:20:51.919Z,101835.22
2018-07-03T21:23:21.009Z,101842.53
2018-07-03T21:25:49.782Z,101832.14
2018-07-03T21:28:18.534Z,101837.61
2018-07-03T21:30:47.680Z,101825.89
2018-07-03T21:33:16.431Z,101830.10
2018-07-03T21:35:45.727Z,101827.58
2018-07-03T21:38:14.973Z,101821.84
2018-07-03T21:40:43.721Z,101826.80
2018-07-03T21:43:12.519Z,101823.16
2018-07-03T21:45:47.303Z,101817.55
2018-07-03T21:48:16.107Z,101818.38
2018-07-03T21:50:44.686Z,101819.77
2018-07-03T21:53:13.780Z,101823.59
2018-07-03T21:55:42.692Z,101819.14
2018-07-03T21:58:11.286Z,101816.08
2018-07-03T22:00:41.455Z,101815.05
2018-07-03T22:03:11.267Z,101810.41
2018-07-03T22:05:40.637Z,101811.91
2018-07-03T22:08:09.765Z,101818.03
2018-07-03T22:10:38.609Z,101812.28
2018-07-03T22:13:07.365Z,101813.96
2018-07-03T22:15:36.546Z,101812.09
2018-07-03T22:18:05.455Z,101809.59
2018-07-03T22:20:34.186Z,101815.50
2018-07-03T22:23:03.079Z,101816.52
2018-07-03T22:25:31.833Z,101813.12
2018-07-03T22:28:00.577Z,101811.89
2018-07-03T22:30:29.255Z,101817.55
2018-07-03T22:32:58.001Z,101812.11
2018-07-03T22:35:26.776Z,101814.14
2018-07-03T22:37:56.189Z,101814.57
2018-07-03T22:40:24.951Z,101817.25
2018-07-03T22:42:53.585Z,101814.06
2018-07-03T22:45:28.787Z,101812.49
2018-07-03T22:47:57.548Z,101814.06
2018-07-03T22:50:26.306Z,101817.62
2018-07-03T22:52:55.290Z,101817.42
2018-07-03T22:55:24.062Z,101818.42
2018-07-03T22:57:52.895Z,101820.80
2018-07-03T23:00:22.028Z,101820.23
2018-07-03T23:02:50.780Z,101815.03
2018-07-03T23:05:19.633Z,101818.85
2018-07-03T23:07:48.478Z,101813.78
2018-07-03T23:10:17.223Z,101807.70
2018-07-03T23:12:45.829Z,101808.66
2018-07-03T23:15:14.765Z,101800.48
2018-07-03T23:17:43.410Z,101801.64
2018-07-03T23:20:12.168Z,101799.66
2018-07-03T23:22:41.235Z,101800.28
2018-07-03T23:25:09.970Z,101802.75
2018-07-03T23:27:38.706Z,101805.27
2018-07-03T23:30:07.545Z,101802.46
2018-07-03T23:32:36.121Z,101801.16
2018-07-03T23:35:05.522Z,101803.28
2018-07-03T23:37:34.428Z,101801.95
2018-07-03T23:40:03.085Z,101797.38
2018-07-03T23:42:31.888Z,101801.16
2018-07-03T23:45:00.954Z,101803.58
2018-07-03T23:47:46.443Z,101803.76
2018-07-03T23:50:32.143Z,101801.20
2018-07-03T23:53:17.811Z,101796.39
2018-07-03T23:56:03.708Z,101784.33
2018-07-03T23:58:49.455Z,101785.55
